createdAt,value
2023-03-30T00:02:05.288Z,99377.13
2023-03-30T00:04:36.910Z,99369.78
2023-03-30T00:07:06.278Z,99358.53
2023-03-30T00:09:33.323Z,99352.28
2023-03-30T00:12:03.820Z,99349.16
2023-03-30T00:14:37.517Z,99344.50
2023-03-30T00:17:05.078Z,99337.94
2023-03-30T00:19:31.806Z,99337.06
2023-03-30T00:21:59.607Z,99338.13
2023-03-30T00:24:36.831Z,99333.84
2023-03-30T00:27:04.159Z,99335.28
2023-03-30T00:29:31.178Z,99325.97
2023-03-30T00:32:05.778Z,99324.72
2023-03-30T00:34:32.750Z,99321.28
2023-03-30T00:37:03.217Z,99323.47
2023-03-30T00:39:33.827Z,99321.75
2023-03-30T00:42:03.807Z,99315.44
2023-03-30T00:45:07.624Z,99320.72
2023-03-30T00:47:42.183Z,99311.41
2023-03-30T00:50:09.970Z,99317.31
2023-03-30T00:52:37.483Z,99313.81
2023-03-30T00:55:14.184Z,99301.75
2023-03-30T00:57:43.389Z,99298.63
2023-03-30T01:00:12.662Z,99292.16
2023-03-30T01:02:53.457Z,99289.34
2023-03-30T01:05:32.076Z,99276.34
2023-03-30T01:07:58.866Z,99267.03
2023-03-30T01:10:26.119Z,99270.50
2023-03-30T01:12:52.931Z,99269.47
2023-03-30T01:15:23.773Z,99264.78
2023-03-30T01:18:15.787Z,99257.47
2023-03-30T01:21:04.202Z,99259.16
2023-03-30T01:23:53.048Z,99252.75
2023-03-30T01:26:47.738Z,99246.59
2023-03-30T01:29:21.016Z,99235.56
2023-03-30T01:32:08.518Z,99237.94
2023-03-30T01:34:53.856Z,99233.88
2023-03-30T01:37:44.185Z,99239.66
2023-03-30T01:40:20.532Z,99226.50
2023-03-30T01:43:13.232Z,99219.53
2023-03-30T01:45:55.919Z,99210.63
2023-03-30T01:48:33.549Z,99226.06
2023-03-30T01:51:06.815Z,99216.00
2023-03-30T01:53:59.442Z,99219.00
2023-03-30T01:56:29.291Z,99208.72
2023-03-30T01:59:03.307Z,99199.25
2023-03-30T02:01:33.351Z,99201.81
2023-03-30T02:04:02.062Z,99196.03
2023-03-30T02:06:38.946Z,99162.84
2023-03-30T02:09:11.568Z,99157.94
2023-03-30T02:11:49.277Z,99159.56
2023-03-30T02:14:17.930Z,99154.22
2023-03-30T02:16:49.781Z,99145.53
2023-03-30T02:19:19.650Z,99159.28
2023-03-30T02:21:48.048Z,99161.81
2023-03-30T02:24:22.968Z,99161.38
2023-03-30T02:26:51.771Z,99151.56
2023-03-30T02:29:19.181Z,99170.00
2023-03-30T02:31:47.194Z,99175.56
2023-03-30T02:34:39.702Z,99172.41
2023-03-30T02:37:46.473Z,99184.19
2023-03-30T02:40:47.769Z,99173.09
2023-03-30T02:43:44.914Z,99177.56
2023-03-30T02:46:27.953Z,99178.84
2023-03-30T02:49:46.746Z,99191.53
2023-03-30T02:52:22.516Z,99183.56
2023-03-30T02:54:55.714Z,99192.66
2023-03-30T02:57:51.299Z,99185.72
2023-03-30T03:00:50.711Z,99163.69
2023-03-30T03:03:31.776Z,99162.16
2023-03-30T03:06:02.570Z,99177.22
2023-03-30T03:08:40.019Z,99153.66
2023-03-30T03:11:11.612Z,99157.84
2023-03-30T03:13:39.390Z,99172.28
2023-03-30T03:16:10.089Z,99169.25
2023-03-30T03:18:44.727Z,99159.56
2023-03-30T03:21:16.085Z,99165.78
2023-03-30T03:23:43.103Z,99160.75
2023-03-30T03:26:18.692Z,99151.31
2023-03-30T03:28:45.691Z,99150.13
2023-03-30T03:31:14.096Z,99148.28
2023-03-30T03:33:46.473Z,99152.03
2023-03-30T03:36:22.885Z,99153.06
2023-03-30T03:38:52.580Z,99141.88
2023-03-30T03:41:19.351Z,99154.50
2023-03-30T03:43:45.963Z,99150.16
2023-03-30T03:46:15.142Z,99137.94
2023-03-30T03:48:46.473Z,99142.47
2023-03-30T03:51:13.310Z,99133.16
2023-03-30T03:53:40.020Z,99130.72
2023-03-30T03:56:16.815Z,99120.56
2023-03-30T03:58:43.599Z,99120.47
2023-03-30T04:01:14.463Z,99118.22
2023-03-30T04:03:45.922Z,99108.84
2023-03-30T04:06:15.854Z,99122.19
2023-03-30T04:08:43.942Z,99110.75
2023-03-30T04:11:22.730Z,99108.56
2023-03-30T04:14:18.759Z,99105.88
2023-03-30T04:17:08.638Z,99105.66
2023-03-30T04:19:54.002Z,99108.34
2023-03-30T04:22:57.240Z,99106.81
2023-03-30T04:25:40.707Z,99102.97
2023-03-30T04:28:24.274Z,99105.88
2023-03-30T04:31:10.625Z,99112.41
2023-03-30T04:34:02.670Z,99117.56
2023-03-30T04:36:54.201Z,99122.81
2023-03-30T04:39:23.822Z,99109.41
2023-03-30T04:42:08.145Z,99099.63
2023-03-30T04:44:51.847Z,99108.81
2023-03-30T04:47:26.120Z,99112.41
2023-03-30T04:50:16.157Z,99100.06
2023-03-30T04:53:03.161Z,99097.63
2023-03-30T04:55:51.161Z,99099.94
2023-03-30T04:58:39.322Z,99098.88
2023-03-30T05:01:24.854Z,99092.91
2023-03-30T05:04:11.977Z,99093.78
2023-03-30T05:06:54.115Z,99094.34
2023-03-30T05:09:41.488Z,99092.38
2023-03-30T05:12:26.776Z,99089.13
2023-03-30T05:15:06.496Z,99084.09
2023-03-30T05:18:02.340Z,99088.50
2023-03-30T05:20:48.396Z,99082.78
2023-03-30T05:23:51.180Z,99086.03
2023-03-30T05:26:36.899Z,99082.84
2023-03-30T05:29:35.712Z,99077.94
2023-03-30T05:32:43.297Z,99083.31
2023-03-30T05:35:30.959Z,99084.91
2023-03-30T05:38:19.532Z,99088.75
2023-03-30T05:41:54.905Z,99086.25
2023-03-30T05:44:41.506Z,99103.94
2023-03-30T05:47:32.000Z,99093.50
2023-03-30T05:50:42.117Z,99096.56
2023-03-30T05:53:17.937Z,99088.94
2023-03-30T05:56:14.699Z,99085.78
2023-03-30T05:58:55.568Z,99083.50
2023-03-30T06:04:55.505Z,99087.59
2023-03-30T06:10:07.534Z,99080.53
2023-03-30T06:12:34.503Z,99082.25
2023-03-30T06:15:05.226Z,99089.75
2023-03-30T06:17:56.575Z,99080.41
2023-03-30T06:20:34.786Z,99081.22
2023-03-30T06:23:01.994Z,99084.34
2023-03-30T06:25:30.209Z,99072.03
2023-03-30T06:28:00.151Z,99075.25
2023-03-30T06:30:27.375Z,99079.41
2023-03-30T06:32:57.443Z,99074.53
2023-03-30T06:35:32.899Z,99087.31
2023-03-30T06:38:00.604Z,99087.88
2023-03-30T06:40:27.484Z,99096.28
2023-03-30T06:42:55.758Z,99092.34
2023-03-30T06:45:43.237Z,99095.94
2023-03-30T06:48:10.037Z,99104.09
2023-03-30T06:50:40.652Z,99108.22
2023-03-30T06:53:17.621Z,99102.47
2023-03-30T06:55:52.019Z,99094.81
2023-03-30T06:58:19.128Z,99101.31
2023-03-30T07:00:49.537Z,99096.28
2023-03-30T07:03:54.682Z,99094.97
2023-03-30T07:06:27.903Z,99094.69
2023-03-30T07:08:55.985Z,99088.09
2023-03-30T07:11:26.224Z,99085.75
2023-03-30T07:13:56.269Z,99093.16
2023-03-30T07:16:22.970Z,99093.03
2023-03-30T07:18:49.811Z,99090.81
2023-03-30T07:21:19.707Z,99086.56
2023-03-30T07:23:47.562Z,99085.22
2023-03-30T07:26:25.480Z,99086.56
2023-03-30T07:28:58.518Z,99089.09
2023-03-30T07:31:25.856Z,99092.84
2023-03-30T07:33:53.110Z,99098.13
2023-03-30T07:36:24.226Z,99091.97
2023-03-30T07:38:52.109Z,99095.22
2023-03-30T07:41:19.729Z,99091.63
2023-03-30T07:43:50.213Z,99104.06
2023-03-30T07:46:17.153Z,99097.41
2023-03-30T07:48:47.296Z,99105.13
2023-03-30T07:51:14.892Z,99100.31
2023-03-30T07:54:06.782Z,99096.75
2023-03-30T07:56:52.780Z,99098.06
2023-03-30T07:59:20.865Z,99098.44
2023-03-30T08:01:50.344Z,99098.81
2023-03-30T08:04:37.067Z,99104.50
2023-03-30T08:07:04.639Z,99106.78
2023-03-30T08:09:32.877Z,99108.00
2023-03-30T08:12:07.246Z,99109.22
2023-03-30T08:14:37.360Z,99104.06
2023-03-30T08:17:07.746Z,99102.22
2023-03-30T08:19:34.454Z,99106.78
2023-03-30T08:22:08.548Z,99118.59
2023-03-30T08:24:35.168Z,99117.13
2023-03-30T08:27:04.896Z,99122.09
2023-03-30T08:29:39.565Z,99120.47
2023-03-30T08:32:07.020Z,99121.97
2023-03-30T08:34:37.300Z,99125.50
2023-03-30T08:37:13.204Z,99133.63
2023-03-30T08:39:39.970Z,99144.47
2023-03-30T08:42:17.549Z,99136.81
2023-03-30T08:44:46.732Z,99133.47
2023-03-30T08:47:16.578Z,99128.72
2023-03-30T08:49:53.246Z,99126.72
2023-03-30T08:52:43.481Z,99118.44
2023-03-30T08:56:19.130Z,99131.41
2023-03-30T08:58:51.870Z,99146.69
2023-03-30T09:01:19.717Z,99128.72
2023-03-30T09:05:27.477Z,99121.97
2023-03-30T09:08:03.143Z,99128.53
2023-03-30T09:10:41.466Z,99137.75
2023-03-30T09:13:10.850Z,99141.16
2023-03-30T09:16:02.683Z,99141.84
2023-03-30T09:18:37.576Z,99139.56
2023-03-30T09:21:06.436Z,99142.72
2023-03-30T09:23:36.277Z,99147.53
2023-03-30T09:26:08.894Z,99137.47
2023-03-30T09:28:49.984Z,99148.69
2023-03-30T09:31:38.047Z,99153.16
2023-03-30T09:34:08.981Z,99156.94
2023-03-30T09:36:44.253Z,99158.47
2023-03-30T09:39:21.404Z,99151.91
2023-03-30T09:42:03.423Z,99160.94
2023-03-30T09:44:37.961Z,99166.69
2023-03-30T09:47:22.896Z,99155.84
2023-03-30T09:49:56.380Z,99176.47
2023-03-30T09:52:25.474Z,99172.97
2023-03-30T09:54:52.448Z,99185.78
2023-03-30T09:57:26.400Z,99173.69
2023-03-30T09:59:56.060Z,99177.59
2023-03-30T10:02:25.484Z,99177.06
2023-03-30T10:04:58.559Z,99164.28
2023-03-30T10:07:34.352Z,99163.63
2023-03-30T10:10:13.230Z,99166.28
2023-03-30T10:12:39.884Z,99158.56
2023-03-30T10:15:07.863Z,99173.03
2023-03-30T10:17:35.152Z,99158.22
2023-03-30T10:20:29.699Z,99160.19
2023-03-30T10:23:02.673Z,99166.75
2023-03-30T10:25:31.584Z,99171.69
2023-03-30T10:28:02.810Z,99172.72
2023-03-30T10:30:44.149Z,99177.78
2023-03-30T10:33:11.212Z,99173.88
2023-03-30T10:35:38.450Z,99184.97
2023-03-30T10:38:15.162Z,99184.75
2023-03-30T10:40:44.195Z,99191.28
2023-03-30T10:43:26.478Z,99198.75
2023-03-30T10:46:18.375Z,99189.00
2023-03-30T10:49:17.004Z,99197.47
2023-03-30T10:52:30.584Z,99189.03
2023-03-30T10:55:15.113Z,99181.19
2023-03-30T10:58:00.043Z,99185.63
2023-03-30T11:00:32.376Z,99194.72
2023-03-30T11:03:15.049Z,99186.41
2023-03-30T11:05:45.834Z,99183.22
2023-03-30T11:08:16.197Z,99186.22
2023-03-30T11:10:48.336Z,99173.75
2023-03-30T11:13:27.884Z,99209.28
2023-03-30T11:15:54.698Z,99188.81
2023-03-30T11:19:09.484Z,99195.22
2023-03-30T11:22:08.139Z,99202.66
2023-03-30T11:24:39.767Z,99200.50
2023-03-30T11:27:36.977Z,99204.00
2023-03-30T11:30:28.403Z,99188.56
2023-03-30T11:33:07.378Z,99196.38
2023-03-30T11:35:41.849Z,99195.84
2023-03-30T11:39:00.218Z,99205.72
2023-03-30T11:41:42.047Z,99197.16
2023-03-30T11:44:11.232Z,99202.31
2023-03-30T11:46:52.264Z,99201.50
2023-03-30T11:49:52.424Z,99193.28
2023-03-30T11:56:56.490Z,99198.03
2023-03-30T11:59:39.686Z,99202.72
2023-03-30T12:02:36.116Z,99193.81
2023-03-30T12:05:27.652Z,99203.16
2023-03-30T12:08:09.485Z,99208.69
2023-03-30T12:10:42.668Z,99214.66
2023-03-30T12:13:48.376Z,99206.88
2023-03-30T12:17:27.972Z,99217.34
2023-03-30T12:33:03.993Z,99242.47
2023-03-30T12:36:01.337Z,99233.22
2023-03-30T12:38:48.724Z,99221.41
2023-03-30T12:41:18.505Z,99230.50
2023-03-30T12:44:39.121Z,99224.63
2023-03-30T12:47:35.838Z,99206.69
2023-03-30T12:50:24.652Z,99216.22
2023-03-30T12:53:29.604Z,99227.47
2023-03-30T12:56:17.750Z,99238.16
2023-03-30T12:59:22.748Z,99242.28
2023-03-30T13:02:17.457Z,99240.00
2023-03-30T13:04:46.825Z,99246.06
2023-03-30T13:07:25.494Z,99242.19
2023-03-30T13:09:55.480Z,99234.75
2023-03-30T13:12:38.871Z,99241.16
2023-03-30T13:15:26.200Z,99246.25
2023-03-30T13:17:56.055Z,99240.13
2023-03-30T13:20:32.971Z,99239.19
2023-03-30T13:23:13.489Z,99230.31
2023-03-30T13:25:45.727Z,99231.53
2023-03-30T13:28:48.894Z,99223.19
2023-03-30T13:31:15.985Z,99230.44
2023-03-30T13:33:57.432Z,99239.50
2023-03-30T13:36:30.730Z,99235.31
2023-03-30T13:39:13.841Z,99224.09
2023-03-30T13:41:59.660Z,99238.69
2023-03-30T13:44:56.762Z,99226.94
2023-03-30T13:47:57.472Z,99228.88
2023-03-30T13:50:29.331Z,99242.81
2023-03-30T13:53:14.601Z,99241.47
2023-03-30T13:55:54.368Z,99247.50
2023-03-30T13:58:24.567Z,99226.91
2023-03-30T14:00:57.493Z,99234.22
2023-03-30T14:04:05.728Z,99230.53
2023-03-30T14:06:38.575Z,99216.69
2023-03-30T14:09:08.299Z,99226.88
2023-03-30T14:11:44.795Z,99229.16
2023-03-30T14:14:23.339Z,99237.09
2023-03-30T14:16:51.502Z,99230.63
2023-03-30T14:19:36.867Z,99231.41
2023-03-30T14:22:15.231Z,99239.63
2023-03-30T14:25:27.252Z,99229.25
2023-03-30T14:27:58.981Z,99257.75
2023-03-30T14:30:55.141Z,99274.53
2023-03-30T14:33:22.572Z,99276.47
2023-03-30T14:35:59.622Z,99283.41
2023-03-30T14:38:30.358Z,99271.84
2023-03-30T14:40:57.309Z,99270.47
2023-03-30T14:43:31.722Z,99277.88
2023-03-30T14:46:03.110Z,99272.09
2023-03-30T14:48:35.884Z,99280.41
2023-03-30T14:51:04.589Z,99281.31
2023-03-30T14:53:31.492Z,99281.72
2023-03-30T14:56:00.756Z,99285.97
2023-03-30T14:58:31.558Z,99285.78
2023-03-30T15:01:00.764Z,99285.09
2023-03-30T15:03:34.522Z,99293.88
2023-03-30T15:06:02.979Z,99291.88
2023-03-30T15:08:36.665Z,99300.31
2023-03-30T15:11:37.460Z,99290.47
2023-03-30T15:14:35.584Z,99286.63
2023-03-30T15:17:14.160Z,99295.31
2023-03-30T15:19:41.578Z,99297.22
2023-03-30T15:22:24.468Z,99293.09
2023-03-30T15:24:54.838Z,99289.19
2023-03-30T15:27:22.318Z,99291.31
2023-03-30T15:30:00.430Z,99287.53
2023-03-30T15:32:57.871Z,99280.66
2023-03-30T15:35:34.414Z,99275.22
2023-03-30T15:38:14.369Z,99281.50
2023-03-30T15:41:03.173Z,99276.34
2023-03-30T15:43:53.709Z,99279.53
2023-03-30T15:46:24.659Z,99269.16
2023-03-30T15:48:53.597Z,99283.13
2023-03-30T15:51:30.528Z,99283.81
2023-03-30T15:54:03.142Z,99279.31
2023-03-30T15:56:39.548Z,99268.88
2023-03-30T15:59:15.680Z,99275.16
2023-03-30T16:01:52.851Z,99269.63
2023-03-30T16:04:22.447Z,99282.75
2023-03-30T16:06:52.800Z,99284.22
2023-03-30T16:09:19.786Z,99286.41
2023-03-30T16:11:46.857Z,99289.84
2023-03-30T16:14:26.553Z,99289.00
2023-03-30T16:16:53.311Z,99303.94
2023-03-30T16:19:20.254Z,99302.16
2023-03-30T16:21:53.330Z,99297.47
2023-03-30T16:24:20.362Z,99305.44
2023-03-30T16:26:49.832Z,99301.03
2023-03-30T16:29:39.889Z,99299.41
2023-03-30T16:32:06.919Z,99305.44
2023-03-30T16:34:37.027Z,99305.53
2023-03-30T16:37:07.078Z,99300.84
2023-03-30T16:39:43.039Z,99304.41
2023-03-30T16:42:09.786Z,99302.66
2023-03-30T16:44:36.512Z,99301.03
2023-03-30T16:47:09.002Z,99301.25
2023-03-30T16:49:39.480Z,99307.81
2023-03-30T16:52:08.808Z,99302.41
2023-03-30T16:54:38.403Z,99297.50
2023-03-30T16:57:10.230Z,99298.25
2023-03-30T16:59:38.104Z,99301.91
2023-03-30T17:02:29.777Z,99294.63
2023-03-30T17:04:56.539Z,99295.19
2023-03-30T17:07:23.384Z,99300.63
2023-03-30T17:09:50.098Z,99299.66
2023-03-30T17:12:16.767Z,99303.41
2023-03-30T17:14:43.458Z,99295.72
2023-03-30T17:17:14.981Z,99308.88
2023-03-30T17:19:42.230Z,99308.53
2023-03-30T17:22:08.922Z,99307.66
2023-03-30T17:24:45.002Z,99312.97
2023-03-30T17:27:13.627Z,99307.84
2023-03-30T17:29:40.997Z,99298.47
2023-03-30T17:32:13.802Z,99305.47
2023-03-30T17:34:40.621Z,99301.44
2023-03-30T17:37:08.783Z,99305.44
2023-03-30T17:39:44.551Z,99307.06
2023-03-30T17:42:13.745Z,99310.44
2023-03-30T17:44:40.526Z,99307.41
2023-03-30T17:47:16.700Z,99302.38
2023-03-30T17:49:43.424Z,99300.94
2023-03-30T17:52:10.633Z,99303.63
2023-03-30T17:54:50.672Z,99312.66
2023-03-30T17:57:17.391Z,99314.06
2023-03-30T17:59:44.137Z,99313.63
2023-03-30T18:02:20.947Z,99313.41
2023-03-30T18:04:51.479Z,99322.88
2023-03-30T18:07:18.255Z,99326.94
2023-03-30T18:09:54.425Z,99335.47
2023-03-30T18:12:21.502Z,99328.84
2023-03-30T18:14:48.540Z,99335.25
2023-03-30T18:17:24.615Z,99329.91
2023-03-30T18:19:54.148Z,99335.97
2023-03-30T18:22:20.953Z,99337.84
2023-03-30T18:24:55.669Z,99331.66
2023-03-30T18:27:22.573Z,99336.56
2023-03-30T18:29:49.535Z,99342.50
2023-03-30T18:32:29.134Z,99338.88
2023-03-30T18:35:09.964Z,99324.66
2023-03-30T18:37:36.615Z,99341.41
2023-03-30T18:40:07.087Z,99349.66
2023-03-30T18:42:45.639Z,99358.53
2023-03-30T18:45:26.535Z,99347.13
2023-03-30T18:47:56.742Z,99349.34
2023-03-30T18:50:29.396Z,99342.09
2023-03-30T18:52:57.162Z,99347.75
2023-03-30T18:55:27.344Z,99355.03
2023-03-30T18:57:58.098Z,99344.94
2023-03-30T19:00:29.700Z,99345.50
2023-03-30T19:02:57.351Z,99339.59
2023-03-30T19:05:30.755Z,99343.13
2023-03-30T19:07:57.700Z,99337.97
2023-03-30T19:10:29.574Z,99331.03
2023-03-30T19:12:56.873Z,99338.16
2023-03-30T19:15:33.135Z,99333.00
2023-03-30T19:18:01.182Z,99328.69
2023-03-30T19:20:29.573Z,99322.34
2023-03-30T19:23:04.652Z,99333.72
2023-03-30T19:25:32.141Z,99332.69
2023-03-30T19:28:03.863Z,99328.81
2023-03-30T19:30:36.775Z,99324.50
2023-03-30T19:33:19.865Z,99335.59
2023-03-30T19:35:46.963Z,99332.34
2023-03-30T19:38:17.717Z,99328.22
2023-03-30T19:40:46.968Z,99326.28
2023-03-30T19:43:13.824Z,99333.59
2023-03-30T19:45:40.714Z,99329.84
2023-03-30T19:48:15.008Z,99336.84
2023-03-30T19:50:41.750Z,99344.56
2023-03-30T19:53:10.977Z,99343.50
2023-03-30T19:55:46.759Z,99344.63
2023-03-30T19:58:13.693Z,99348.63
2023-03-30T20:00:43.570Z,99348.00
2023-03-30T20:03:19.447Z,99347.63
2023-03-30T20:05:50.664Z,99343.44
2023-03-30T20:08:24.262Z,99351.28
2023-03-30T20:10:58.857Z,99344.00
2023-03-30T20:13:33.824Z,99333.59
2023-03-30T20:16:02.609Z,99337.31
2023-03-30T20:18:31.468Z,99339.91
2023-03-30T20:21:03.956Z,99335.47
2023-03-30T20:23:35.547Z,99327.44
2023-03-30T20:26:09.280Z,99318.66
2023-03-30T20:28:36.340Z,99313.78
2023-03-30T20:31:03.589Z,99313.97
2023-03-30T20:33:33.432Z,99313.13
2023-03-30T20:36:05.536Z,99313.56
2023-03-30T20:38:32.722Z,99314.47
2023-03-30T20:41:15.688Z,99296.91
2023-03-30T20:43:57.293Z,99305.31
2023-03-30T20:46:26.180Z,99302.28
2023-03-30T20:49:12.352Z,99306.22
2023-03-30T20:51:50.094Z,99305.09
2023-03-30T20:54:21.847Z,99306.56
2023-03-30T20:56:48.758Z,99311.13
2023-03-30T20:59:22.634Z,99300.44
2023-03-30T21:01:52.273Z,99293.88
2023-03-30T21:04:19.684Z,99297.81
2023-03-30T21:07:12.245Z,99298.56
2023-03-30T21:09:45.471Z,99290.59
2023-03-30T21:12:21.491Z,99284.88
2023-03-30T21:14:50.667Z,99277.22
2023-03-30T21:17:17.448Z,99276.41
2023-03-30T21:19:52.055Z,99273.47
2023-03-30T21:22:18.902Z,99264.63
2023-03-30T21:24:47.832Z,99267.84
2023-03-30T21:27:24.739Z,99263.25
2023-03-30T21:29:51.701Z,99265.44
2023-03-30T21:32:18.741Z,99251.00
2023-03-30T21:34:54.811Z,99258.59
2023-03-30T21:37:38.724Z,99244.53
2023-03-30T21:40:18.031Z,99247.47
2023-03-30T21:45:33.117Z,99232.47
2023-03-30T21:47:59.876Z,99229.09
2023-03-30T21:50:57.152Z,99229.22
2023-03-30T21:53:25.137Z,99218.97
2023-03-30T21:56:04.470Z,99217.63
2023-03-30T21:58:34.857Z,99204.94
2023-03-30T22:01:31.084Z,99202.13
2023-03-30T22:04:00.050Z,99199.59
2023-03-30T22:06:33.633Z,99197.03
2023-03-30T22:09:03.639Z,99194.03
2023-03-30T22:11:32.829Z,99194.34
2023-03-30T22:14:03.831Z,99196.78
2023-03-30T22:16:36.793Z,99198.53
2023-03-30T22:19:04.664Z,99185.75
2023-03-30T22:21:35.722Z,99196.56
2023-03-30T22:24:07.373Z,99186.78
2023-03-30T22:26:50.574Z,99186.91
2023-03-30T22:29:39.549Z,99193.88
2023-03-30T22:32:35.964Z,99190.03
2023-03-30T22:35:02.926Z,99179.59
2023-03-30T22:37:47.504Z,99175.63
2023-03-30T22:40:16.866Z,99171.31
2023-03-30T22:42:45.310Z,99171.19
2023-03-30T22:45:16.668Z,99174.72
2023-03-30T22:50:42.816Z,99176.19
2023-03-30T22:53:13.671Z,99171.88
2023-03-30T22:55:42.818Z,99168.38
2023-03-30T22:58:13.015Z,99167.91
2023-03-30T23:03:53.180Z,99159.69
2023-03-30T23:06:27.525Z,99150.28
2023-03-30T23:11:56.635Z,99155.31
2023-03-30T23:14:39.581Z,99143.44
2023-03-30T23:17:18.978Z,99149.00
2023-03-30T23:19:51.073Z,99147.25
2023-03-30T23:22:31.299Z,99146.47
2023-03-30T23:25:00.437Z,99145.03
2023-03-30T23:31:06.440Z,99141.03
2023-03-30T23:33:07.587Z,99139.34
2023-03-30T23:35:48.573Z,99134.72
2023-03-30T23:38:18.297Z,99134.91
2023-03-30T23:40:52.453Z,99131.38
2023-03-30T23:43:22.260Z,99126.78
2023-03-30T23:46:20.090Z,99124.63
2023-03-30T23:48:50.377Z,99116.69
2023-03-30T23:51:34.004Z,99121.44
2023-03-30T23:54:27.128Z,99117.53
